San Isidro, Nicaragua

2:00 PM CST on July 29, 2016 (GMT -0600)
Augusto Cesar Sandino | | Change Station

Elev 184 ft 12.14 °N, 86.17 °W | Updated 1 hour ago

Scattered Clouds
Scattered Clouds
91 °F
Feels Like 98 °F
N
9
Wind Variable Wind from East

Today
High -- | Low -- °F
--% Chance of Precip.
Yesterday
High -- | Low -- °F
Precip. -- in
Pressure 29.80 in
Visibility 6.2 miles
Clouds Few 2000 ft
Scattered Clouds 30000 ft
Heat Index 98 °F
Dew Point 72 °F
Humidity 52%
Rainfall 0.00 in
Snow Depth Not available.
5:29 AM 6:12 PM
Waning Crescent, 19% visible
METAR MNMG 291900Z 08008KT 9999 FEW020CB SCT300 33/22 Q1009 A2980 CB NE TCU E SE NOSIG
Pressure 29.80 in
Visibility 6.2 miles
Clouds Few 2000 ft
Scattered Clouds 30000 ft
Heat Index 98 °F
Dew Point 72 °F
Humidity 52%
Rainfall 0.00 in
Snow Depth Not available.
5:29 AM 6:12 PM
Waning Crescent, 19% visible
METAR MNMG 291900Z 08008KT 9999 FEW020CB SCT300 33/22 Q1009 A2980 CB NE TCU E SE NOSIG

10-Day Weather Forecast

No radar image for this location.
×

Almanac

Astronomy

Jul. 29, 2016 Rise Set
Actual Time
Civil Twilight
Nautical Twilight
Astronomical Twilight
Moon
Length of Visible Light
Length of Day
Tomorrow will be .
, % of the Moon is Illuminated

Today's Extremes

Country Highs Country Lows

Community

WunderPhotos

Upload Photos

1,928,401 photos uploaded!

WunderBlog® & News

Nearby

Air Quality

  Air Quality AQ Index Pollutant
Not available.

Snow Depth

Station Depth Elevation

Earthquake Activity

City Distance Mag. Time & Date
Minimum magnitude displayed is 2.5.

Coastal Water Temperatures

Place Temperature

Stations

Nearby Weather Stations

Station Location Temp. Windchill Dew Point Humidity Wind Precip. Elev Updated Type